Time;durP1;ratioP1;P1;durP2;ratioP2;P2;SDS_P1;SDS_P2;PMS_P1;PMS_P2;Temp;Humidity;BMP_temperature;BMP_pressure;BME280_temperature;BME280_humidity;BME280_pressure;Samples;Min_cycle;Max_cycle;Signal;HPM_P1;HPM_P2
2024/03/25 00:00:24;;;;;;;12.90;3.03;;;;;;;;;;4993318;28;20037;-85
2024/03/25 00:02:51;;;;;;;13.65;3.15;;;;;;;;;;4986707;28;20687;-83
2024/03/25 00:05:22;;;;;;;12.65;3.10;;;;;;;;;;4987995;28;20057;-85
2024/03/25 00:07:50;;;;;;;11.38;2.95;;;;;;;;;;4988640;28;20076;-87
2024/03/25 00:10:16;;;;;;;15.00;2.70;;;;;;;;;;4995194;28;20092;-86
2024/03/25 00:12:44;;;;;;;15.40;3.22;;;;;;;;;;4990928;28;20030;-87
2024/03/25 00:15:11;;;;;;;13.80;2.85;;;;;;;;;;4989547;28;20049;-86
2024/03/25 00:17:42;;;;;;;14.15;3.13;;;;;;;;;;4988246;28;20030;-86
2024/03/25 00:20:09;;;;;;;13.77;3.00;;;;;;;;;;4993452;28;20032;-85
2024/03/25 00:22:36;;;;;;;16.17;2.90;;;;;;;;;;4990228;28;20140;-87
2024/03/25 00:25:03;;;;;;;13.73;2.63;;;;;;;;;;5001075;28;20033;-87
2024/03/25 00:27:30;;;;;;;;;;;;;;;;;;4996575;28;21788;-87
2024/03/25 00:29:56;;;;;;;10.55;2.42;;;;;;;;;;4999533;28;19921;-86
2024/03/25 00:32:24;;;;;;;13.30;3.22;;;;;;;;;;4996210;28;20029;-86
2024/03/25 00:34:51;;;;;;;18.33;4.13;;;;;;;;;;4993835;28;20034;-86
2024/03/25 00:37:17;;;;;;;11.73;3.15;;;;;;;;;;4995051;28;20022;-88
2024/03/25 00:39:43;;;;;;;;;;;;;;;;;;4990798;28;20026;-87
2024/03/25 00:42:10;;;;;;;13.90;3.13;;;;;;;;;;4997434;28;19967;-87
2024/03/25 00:44:36;;;;;;;11.50;2.72;;;;;;;;;;4990034;28;20144;-85
2024/03/25 00:47:04;;;;;;;11.80;3.53;;;;;;;;;;4995411;28;20050;-85
2024/03/25 00:49:33;;;;;;;13.48;3.47;;;;;;;;;;4990375;28;20044;-85
2024/03/25 00:52:00;;;;;;;13.63;3.67;;;;;;;;;;4996018;28;20377;-86
2024/03/25 00:54:28;;;;;;;11.07;2.92;;;;;;;;;;4991799;28;20026;-84
2024/03/25 00:56:54;;;;;;;11.15;3.03;;;;;;;;;;4997337;28;20037;-85
2024/03/25 00:59:21;;;;;;;13.70;3.70;;;;;;;;;;4994557;28;20107;-86
2024/03/25 01:01:48;;;;;;;;;;;;;;;;;;4991495;28;20895;-85
2024/03/25 01:04:16;;;;;;;12.88;3.97;;;;;;;;;;4994092;28;20678;-85
2024/03/25 01:06:43;;;;;;;14.93;3.90;;;;;;;;;;4992166;28;20039;-86
2024/03/25 01:09:10;;;;;;;14.98;3.47;;;;;;;;;;4995614;28;20048;-85
2024/03/25 01:11:36;;;;;;;13.63;3.10;;;;;;;;;;4991628;28;20032;-85
2024/03/25 01:14:03;;;;;;;;;;;;;;;;;;4995433;28;20029;-86
2024/03/25 01:16:32;;;;;;;12.52;3.13;;;;;;;;;;4993619;28;20379;-86
2024/03/25 01:19:00;;;;;;;14.65;3.70;;;;;;;;;;4992398;28;20060;-85
2024/03/25 01:21:26;;;;;;;13.57;3.47;;;;;;;;;;4989972;28;20033;-86
2024/03/25 01:23:55;;;;;;;13.98;3.63;;;;;;;;;;4993412;28;20677;-85
2024/03/25 01:26:24;;;;;;;12.38;3.47;;;;;;;;;;4993134;28;20037;-85
2024/03/25 01:28:51;;;;;;;12.73;3.08;;;;;;;;;;4990077;28;20034;-86
2024/03/25 01:31:20;;;;;;;15.88;3.38;;;;;;;;;;4992691;28;20025;-86
2024/03/25 01:33:48;;;;;;;13.40;3.17;;;;;;;;;;4987980;28;20115;-86
2024/03/25 01:36:17;;;;;;;13.85;3.47;;;;;;;;;;4992530;28;20025;-86
2024/03/25 01:38:46;;;;;;;14.20;3.70;;;;;;;;;;4984760;28;20105;-86
2024/03/25 01:41:17;;;;;;;11.93;2.60;;;;;;;;;;4989074;28;20040;-86
2024/03/25 01:43:44;;;;;;;14.15;3.08;;;;;;;;;;4994920;28;20061;-86
2024/03/25 01:46:13;;;;;;;16.15;3.30;;;;;;;;;;4995445;28;20041;-86
2024/03/25 01:48:40;;;;;;;15.13;2.90;;;;;;;;;;4992896;28;20068;-86
2024/03/25 01:51:07;;;;;;;18.20;3.67;;;;;;;;;;4992145;28;20583;-86
2024/03/25 01:53:35;;;;;;;11.38;3.08;;;;;;;;;;4984651;28;20032;-85
2024/03/25 01:56:02;;;;;;;12.88;2.53;;;;;;;;;;4989684;28;20022;-86
2024/03/25 01:58:30;;;;;;;13.82;2.63;;;;;;;;;;4981593;28;20029;-84
2024/03/25 02:00:57;;;;;;;16.00;3.30;;;;;;;;;;4989703;28;21030;-84
2024/03/25 02:03:23;;;;;;;15.68;2.85;;;;;;;;;;4986027;28;20037;-84
2024/03/25 02:05:53;;;;;;;13.02;2.80;;;;;;;;;;4983958;28;20059;-84
2024/03/25 02:08:23;;;;;;;12.75;3.13;;;;;;;;;;4994759;28;20037;-84
2024/03/25 02:10:49;;;;;;;14.23;2.75;;;;;;;;;;4984710;28;20540;-85
2024/03/25 02:13:18;;;;;;;12.75;3.08;;;;;;;;;;4986503;28;20092;-85
2024/03/25 02:15:46;;;;;;;11.95;2.50;;;;;;;;;;4969364;28;20152;-84
2024/03/25 02:18:14;;;;;;;15.07;2.80;;;;;;;;;;4987333;28;20521;-84
2024/03/25 02:20:42;;;;;;;13.85;2.97;;;;;;;;;;4986551;28;20048;-84
2024/03/25 02:23:10;;;;;;;15.32;3.22;;;;;;;;;;4990413;28;20023;-84
2024/03/25 02:25:39;;;;;;;12.70;2.80;;;;;;;;;;4985368;28;20044;-85
2024/03/25 02:28:06;;;;;;;13.60;2.75;;;;;;;;;;4990226;28;20041;-85
2024/03/25 02:30:33;;;;;;;13.73;2.83;;;;;;;;;;4986888;28;20072;-85
2024/03/25 02:33:01;;;;;;;12.40;2.72;;;;;;;;;;4991808;28;21141;-85
2024/03/25 02:35:31;;;;;;;14.05;2.65;;;;;;;;;;4991042;28;20034;-84
2024/03/25 02:38:00;;;;;;;10.35;2.30;;;;;;;;;;4994035;28;20026;-85
2024/03/25 02:40:27;;;;;;;14.23;3.08;;;;;;;;;;4991149;28;20060;-84
2024/03/25 02:42:54;;;;;;;14.13;3.03;;;;;;;;;;4990590;28;20026;-84
2024/03/25 02:45:22;;;;;;;12.27;2.90;;;;;;;;;;4994334;28;20059;-85
2024/03/25 02:47:52;;;;;;;13.40;3.22;;;;;;;;;;4992452;28;20809;-84
2024/03/25 02:50:18;;;;;;;12.18;2.90;;;;;;;;;;4979886;28;20034;-85
2024/03/25 02:52:46;;;;;;;12.98;2.70;;;;;;;;;;4992817;28;20057;-84
2024/03/25 02:55:13;;;;;;;13.30;2.88;;;;;;;;;;4994744;28;20023;-84
2024/03/25 02:57:41;;;;;;;12.55;2.90;;;;;;;;;;4993633;28;20518;-84
2024/03/25 03:00:09;;;;;;;13.65;2.67;;;;;;;;;;4994253;28;20448;-84
2024/03/25 03:02:36;;;;;;;11.65;2.50;;;;;;;;;;4989674;28;20136;-84
2024/03/25 03:05:04;;;;;;;11.88;2.88;;;;;;;;;;4991349;28;20095;-84
2024/03/25 03:07:31;;;;;;;12.18;2.50;;;;;;;;;;4991005;28;20589;-84
2024/03/25 03:10:00;;;;;;;12.68;2.70;;;;;;;;;;4993312;28;20033;-84
2024/03/25 03:12:28;;;;;;;11.93;2.60;;;;;;;;;;4993118;28;20029;-84
2024/03/25 03:14:56;;;;;;;11.00;2.72;;;;;;;;;;4992980;28;20044;-86
2024/03/25 03:17:23;;;;;;;13.07;2.80;;;;;;;;;;4993797;28;20026;-84
2024/03/25 03:19:49;;;;;;;13.45;2.58;;;;;;;;;;4991402;28;20056;-85
2024/03/25 03:22:17;;;;;;;13.10;3.03;;;;;;;;;;4992795;28;20033;-84
2024/03/25 03:24:44;;;;;;;10.68;2.42;;;;;;;;;;4992351;28;20033;-85
2024/03/25 03:27:10;;;;;;;11.88;2.47;;;;;;;;;;4992042;28;20045;-84
2024/03/25 03:29:38;;;;;;;13.48;2.10;;;;;;;;;;4990402;28;20104;-85
2024/03/25 03:32:08;;;;;;;12.63;3.05;;;;;;;;;;4992946;28;20022;-85
2024/03/25 03:34:35;;;;;;;12.52;2.58;;;;;;;;;;5002005;28;20353;-86
2024/03/25 03:37:04;;;;;;;11.15;2.53;;;;;;;;;;5011766;28;20029;-85
2024/03/25 03:39:32;;;;;;;13.75;2.60;;;;;;;;;;5007861;28;20045;-85
2024/03/25 03:41:59;;;;;;;11.80;2.60;;;;;;;;;;5008981;28;20038;-86
2024/03/25 03:44:27;;;;;;;11.40;2.63;;;;;;;;;;4990665;28;20030;-84
2024/03/25 03:46:53;;;;;;;9.32;2.00;;;;;;;;;;4992784;28;20496;-85
2024/03/25 03:49:19;;;;;;;11.63;2.25;;;;;;;;;;4989496;28;20030;-84
2024/03/25 03:51:46;;;;;;;14.95;2.63;;;;;;;;;;4995151;28;21360;-85
2024/03/25 03:54:15;;;;;;;11.93;2.25;;;;;;;;;;4996754;28;20167;-85
2024/03/25 03:56:44;;;;;;;11.35;2.20;;;;;;;;;;4997816;28;20625;-84
2024/03/25 03:59:10;;;;;;;12.32;2.65;;;;;;;;;;4995687;28;20034;-85
2024/03/25 04:01:38;;;;;;;10.90;2.47;;;;;;;;;;4991608;28;20040;-85
2024/03/25 04:04:05;;;;;;;12.00;2.70;;;;;;;;;;4993396;28;20087;-85
2024/03/25 04:06:32;;;;;;;11.60;2.50;;;;;;;;;;4987279;28;20030;-83
2024/03/25 04:09:00;;;;;;;10.98;2.45;;;;;;;;;;4995523;28;20140;-84
2024/03/25 04:11:27;;;;;;;10.48;2.30;;;;;;;;;;4991498;28;20026;-86
2024/03/25 04:13:57;;;;;;;14.80;2.53;;;;;;;;;;4994893;28;20033;-83
2024/03/25 04:16:24;;;;;;;12.23;2.80;;;;;;;;;;4973719;28;20037;-83
2024/03/25 04:18:52;;;;;;;14.23;2.65;;;;;;;;;;4990814;28;20037;-83
2024/03/25 04:21:18;;;;;;;12.15;2.20;;;;;;;;;;4992445;28;20026;-83
2024/03/25 04:23:46;;;;;;;10.77;2.40;;;;;;;;;;4988214;28;20041;-83
2024/03/25 04:26:14;;;;;;;13.32;2.55;;;;;;;;;;4992560;28;20579;-84
2024/03/25 04:28:41;;;;;;;11.88;2.38;;;;;;;;;;4986244;28;20049;-83
2024/03/25 04:31:10;;;;;;;12.07;2.25;;;;;;;;;;4988239;28;20033;-83
2024/03/25 04:33:38;;;;;;;11.80;2.75;;;;;;;;;;4985189;28;20654;-83
2024/03/25 04:36:05;;;;;;;10.90;2.20;;;;;;;;;;4990526;28;21194;-83
2024/03/25 04:38:32;;;;;;;11.23;2.03;;;;;;;;;;4986361;28;20041;-83
2024/03/25 04:41:00;;;;;;;6.90;1.83;;;;;;;;;;4989693;28;20041;-82
2024/03/25 04:43:28;;;;;;;8.93;1.85;;;;;;;;;;4988617;28;20559;-83
2024/03/25 04:45:57;;;;;;;11.30;2.10;;;;;;;;;;4987691;28;20818;-84
2024/03/25 04:48:23;;;;;;;11.73;2.13;;;;;;;;;;4986496;28;20033;-83
2024/03/25 04:50:51;;;;;;;;;;;;;;;;;;4984585;28;20714;-84
2024/03/25 04:53:18;;;;;;;;;;;;;;;;;;4989952;28;19924;-83
2024/03/25 04:55:45;;;;;;;10.38;2.10;;;;;;;;;;4982228;28;19913;-85
2024/03/25 04:58:14;;;;;;;10.27;2.17;;;;;;;;;;4988838;28;20038;-83
2024/03/25 05:00:43;;;;;;;9.88;2.00;;;;;;;;;;4990576;28;20108;-84
2024/03/25 05:03:10;;;;;;;8.55;1.90;;;;;;;;;;4990272;28;20025;-83
2024/03/25 05:05:36;;;;;;;9.95;2.45;;;;;;;;;;4989042;28;20579;-84
2024/03/25 05:08:03;;;;;;;9.68;2.00;;;;;;;;;;4989829;28;20029;-83
2024/03/25 05:10:30;;;;;;;8.65;1.90;;;;;;;;;;4984585;28;20083;-83
2024/03/25 05:12:58;;;;;;;11.35;2.33;;;;;;;;;;4990472;28;20032;-84
2024/03/25 05:15:27;;;;;;;12.90;2.15;;;;;;;;;;4989027;28;20069;-85
2024/03/25 05:17:55;;;;;;;13.13;2.17;;;;;;;;;;4992114;28;20122;-83
2024/03/25 05:20:23;;;;;;;8.20;1.67;;;;;;;;;;4990445;28;20032;-85
2024/03/25 05:22:51;;;;;;;10.50;1.80;;;;;;;;;;4983301;28;20026;-83
2024/03/25 05:25:18;;;;;;;10.75;1.92;;;;;;;;;;4991009;28;20030;-84
2024/03/25 05:27:47;;;;;;;11.00;2.00;;;;;;;;;;4984148;28;20101;-83
2024/03/25 05:30:14;;;;;;;13.20;2.05;;;;;;;;;;4989761;28;20050;-85
2024/03/25 05:32:42;;;;;;;15.38;2.65;;;;;;;;;;4986071;28;20218;-85
2024/03/25 05:35:09;;;;;;;9.30;1.95;;;;;;;;;;4991544;28;20046;-83
2024/03/25 05:37:37;;;;;;;9.73;2.00;;;;;;;;;;4983111;28;20550;-85
2024/03/25 05:40:05;;;;;;;9.30;1.95;;;;;;;;;;4987146;28;20038;-85
2024/03/25 05:42:34;;;;;;;10.73;1.90;;;;;;;;;;4985234;28;20037;-83
2024/03/25 05:45:01;;;;;;;9.07;1.92;;;;;;;;;;4984312;28;20033;-83
2024/03/25 05:47:28;;;;;;;8.77;1.83;;;;;;;;;;4986865;28;20693;-83
2024/03/25 05:49:55;;;;;;;11.48;2.08;;;;;;;;;;4987425;28;20674;-85
2024/03/25 05:52:22;;;;;;;10.85;2.13;;;;;;;;;;4986275;28;20022;-85
2024/03/25 05:54:50;;;;;;;9.65;2.00;;;;;;;;;;4987647;28;20045;-86
2024/03/25 05:57:18;;;;;;;14.55;2.40;;;;;;;;;;4989518;28;20054;-84
2024/03/25 05:59:45;;;;;;;13.05;2.45;;;;;;;;;;4982206;28;20041;-85
2024/03/25 06:02:12;;;;;;;8.68;1.88;;;;;;;;;;4988211;28;20121;-85
2024/03/25 06:04:40;;;;;;;8.90;1.77;;;;;;;;;;4983028;28;20052;-85
2024/03/25 06:07:06;;;;;;;10.15;2.17;;;;;;;;;;4988868;28;20029;-85
2024/03/25 06:09:34;;;;;;;9.35;1.80;;;;;;;;;;4988465;28;20161;-85
2024/03/25 06:12:01;;;;;;;7.13;1.60;;;;;;;;;;4988763;28;20029;-85
2024/03/25 06:14:27;;;;;;;8.82;1.92;;;;;;;;;;4985789;28;20091;-84
2024/03/25 06:16:56;;;;;;;8.90;1.75;;;;;;;;;;4985768;28;20125;-85
2024/03/25 06:19:24;;;;;;;9.18;1.90;;;;;;;;;;4984519;28;20045;-85
2024/03/25 06:21:51;;;;;;;9.43;1.63;;;;;;;;;;4984077;28;20021;-85
2024/03/25 06:24:19;;;;;;;6.45;1.30;;;;;;;;;;4990266;28;20048;-85
2024/03/25 06:26:46;;;;;;;7.20;1.65;;;;;;;;;;4983326;28;20656;-84
2024/03/25 06:29:13;;;;;;;8.45;1.83;;;;;;;;;;4988409;28;20507;-84
2024/03/25 06:34:25;;;;;;;8.15;1.85;;;;;;;;;;4989333;28;20072;-84
2024/03/25 06:36:52;;;;;;;10.00;1.90;;;;;;;;;;4988845;28;20033;-84
2024/03/25 06:39:20;;;;;;;8.00;1.85;;;;;;;;;;4987589;28;20044;-85
2024/03/25 06:41:48;;;;;;;9.43;1.95;;;;;;;;;;4985438;28;21699;-85
2024/03/25 06:44:15;;;;;;;10.07;2.20;;;;;;;;;;4991992;28;20037;-86
2024/03/25 06:46:43;;;;;;;7.95;1.75;;;;;;;;;;4986572;28;20105;-85
2024/03/25 06:49:10;;;;;;;8.13;1.75;;;;;;;;;;4989211;28;20037;-85
2024/03/25 06:51:38;;;;;;;8.70;1.80;;;;;;;;;;4987682;28;20030;-84
2024/03/25 06:54:07;;;;;;;7.88;1.73;;;;;;;;;;4992754;28;20017;-84
2024/03/25 06:56:36;;;;;;;9.70;1.80;;;;;;;;;;4991841;28;20817;-85
2024/03/25 06:59:02;;;;;;;7.70;1.90;;;;;;;;;;4989418;28;20045;-85
2024/03/25 07:01:31;;;;;;;8.02;1.73;;;;;;;;;;4988604;28;20088;-85
2024/03/25 07:03:57;;;;;;;10.90;2.45;;;;;;;;;;4994130;28;20029;-85
2024/03/25 07:06:25;;;;;;;8.43;2.03;;;;;;;;;;4995559;28;20117;-84
2024/03/25 07:08:51;;;;;;;10.88;2.42;;;;;;;;;;4987350;28;20041;-86
2024/03/25 07:11:18;;;;;;;8.77;1.90;;;;;;;;;;4994010;28;20026;-84
2024/03/25 07:13:47;;;;;;;9.48;2.17;;;;;;;;;;4982663;28;20033;-85
2024/03/25 07:16:14;;;;;;;8.93;1.90;;;;;;;;;;4989053;28;20060;-85
2024/03/25 07:18:42;;;;;;;12.25;2.35;;;;;;;;;;4989667;28;20038;-85
2024/03/25 07:21:09;;;;;;;7.65;1.90;;;;;;;;;;5000642;28;20029;-85
2024/03/25 07:23:36;;;;;;;7.85;1.77;;;;;;;;;;4998601;28;20064;-87
2024/03/25 07:26:03;;;;;;;8.95;1.90;;;;;;;;;;5003373;28;20064;-85
2024/03/25 07:28:30;;;;;;;10.73;1.90;;;;;;;;;;4995792;28;20037;-85
2024/03/25 07:30:56;;;;;;;8.60;1.98;;;;;;;;;;5001138;28;20025;-85
2024/03/25 07:33:23;;;;;;;7.70;2.03;;;;;;;;;;4999480;28;20069;-86
2024/03/25 07:35:51;;;;;;;8.40;2.38;;;;;;;;;;4994144;28;20017;-86
2024/03/25 07:38:17;;;;;;;7.20;1.90;;;;;;;;;;4993428;28;20036;-84
2024/03/25 07:40:43;;;;;;;9.95;1.90;;;;;;;;;;4981878;28;20072;-83
2024/03/25 07:43:10;;;;;;;;;;;;;;;;;;4989919;28;20064;-85
2024/03/25 07:45:37;;;;;;;9.02;1.85;;;;;;;;;;4989081;28;19916;-84
2024/03/25 07:48:07;;;;;;;9.73;1.90;;;;;;;;;;4991334;28;20256;-84
2024/03/25 07:50:34;;;;;;;12.50;2.28;;;;;;;;;;4994256;28;20052;-87
2024/03/25 07:53:03;;;;;;;9.60;2.05;;;;;;;;;;4995172;28;20025;-84
2024/03/25 07:55:31;;;;;;;7.85;1.90;;;;;;;;;;4990693;28;20106;-83
2024/03/25 07:57:59;;;;;;;8.73;1.85;;;;;;;;;;4992564;28;20025;-85
2024/03/25 08:00:26;;;;;;;7.93;1.90;;;;;;;;;;4984536;28;20042;-83
2024/03/25 08:02:55;;;;;;;10.77;2.15;;;;;;;;;;4988600;28;20025;-83
2024/03/25 08:05:23;;;;;;;11.88;2.08;;;;;;;;;;4989131;28;20040;-86
2024/03/25 08:07:51;;;;;;;12.50;2.15;;;;;;;;;;4988916;28;20017;-86
2024/03/25 08:10:17;;;;;;;9.48;2.00;;;;;;;;;;4990343;28;20516;-87
2024/03/25 08:12:44;;;;;;;;;;;;;;;;;;4991569;28;20101;-85
2024/03/25 08:15:13;;;;;;;7.93;1.90;;;;;;;;;;4991069;28;19923;-84
2024/03/25 08:17:40;;;;;;;8.23;1.60;;;;;;;;;;4987729;28;20113;-86
2024/03/25 08:20:08;;;;;;;;;;;;;;;;;;4990079;28;20037;-87
2024/03/25 08:22:35;;;;;;;8.35;1.75;;;;;;;;;;4990400;28;19916;-87
2024/03/25 08:25:03;;;;;;;9.18;1.63;;;;;;;;;;4994770;28;20033;-85
2024/03/25 08:27:29;;;;;;;9.35;1.70;;;;;;;;;;4988716;28;20607;-85
2024/03/25 08:29:56;;;;;;;;;;;;;;;;;;4990768;28;20049;-88
2024/03/25 08:32:22;;;;;;;;;;;;;;;;;;4989377;28;19913;-82
2024/03/25 08:34:50;;;;;;;6.68;1.50;;;;;;;;;;4988238;28;20292;-85
2024/03/25 08:37:16;;;;;;;8.93;1.67;;;;;;;;;;4984984;28;20799;-86
2024/03/25 08:39:44;;;;;;;8.07;1.67;;;;;;;;;;4988286;28;20061;-87
2024/03/25 08:42:12;;;;;;;7.18;1.52;;;;;;;;;;4988478;28;20140;-86
2024/03/25 08:44:40;;;;;;;8.32;1.80;;;;;;;;;;4983638;28;20034;-84
2024/03/25 08:47:09;;;;;;;6.43;1.52;;;;;;;;;;4984745;28;20030;-86
2024/03/25 08:49:36;;;;;;;8.38;2.35;;;;;;;;;;4987442;28;20034;-86
2024/03/25 08:52:02;;;;;;;9.07;2.05;;;;;;;;;;4991773;28;20039;-86
2024/03/25 08:54:29;;;;;;;6.68;1.70;;;;;;;;;;4999223;28;20025;-86
2024/03/25 08:56:56;;;;;;;8.98;2.08;;;;;;;;;;4989730;28;20045;-86
2024/03/25 08:59:23;;;;;;;6.00;1.52;;;;;;;;;;4992724;28;20029;-86
2024/03/25 09:01:51;;;;;;;8.55;1.88;;;;;;;;;;4987291;28;20057;-88
2024/03/25 09:04:17;;;;;;;8.30;1.52;;;;;;;;;;5003101;28;20136;-88
2024/03/25 09:06:45;;;;;;;10.10;1.90;;;;;;;;;;4992527;28;20561;-88
2024/03/25 09:11:56;;;;;;;7.43;1.80;;;;;;;;;;4992612;28;20230;-85
2024/03/25 09:14:23;;;;;;;7.05;1.73;;;;;;;;;;4989210;28;20650;-86
2024/03/25 09:16:50;;;;;;;7.15;1.83;;;;;;;;;;4983463;28;20674;-85
2024/03/25 09:19:17;;;;;;;7.00;1.42;;;;;;;;;;4988251;28;20026;-86
2024/03/25 09:21:45;;;;;;;8.25;1.85;;;;;;;;;;4982191;28;20696;-84
2024/03/25 09:24:11;;;;;;;7.45;1.63;;;;;;;;;;4990254;28;20680;-86
2024/03/25 09:26:39;;;;;;;9.05;1.90;;;;;;;;;;4984079;28;20052;-85
2024/03/25 09:29:08;;;;;;;8.93;1.40;;;;;;;;;;4988753;28;20111;-84
2024/03/25 09:31:34;;;;;;;7.38;1.58;;;;;;;;;;4984448;28;20040;-85
2024/03/25 09:34:01;;;;;;;8.93;1.55;;;;;;;;;;4993076;28;20053;-85
2024/03/25 09:36:28;;;;;;;7.38;1.75;;;;;;;;;;5001780;28;20032;-86
2024/03/25 09:38:56;;;;;;;7.53;1.75;;;;;;;;;;4988694;28;20523;-87
2024/03/25 09:41:25;;;;;;;7.85;1.73;;;;;;;;;;4991250;28;21018;-86
2024/03/25 09:44:05;;;;;;;7.80;1.85;;;;;;;;;;4983090;28;20037;-85
2024/03/25 09:46:33;;;;;;;9.10;1.60;;;;;;;;;;4983846;28;20056;-86
2024/03/25 09:49:04;;;;;;;8.38;1.42;;;;;;;;;;4988105;28;20056;-87
2024/03/25 09:51:31;;;;;;;7.70;1.40;;;;;;;;;;4986685;28;20022;-86
2024/03/25 09:53:59;;;;;;;7.15;1.70;;;;;;;;;;4988727;28;20033;-85
2024/03/25 09:56:30;;;;;;;6.20;1.50;;;;;;;;;;4992959;28;20025;-85
2024/03/25 09:58:58;;;;;;;7.70;1.45;;;;;;;;;;4986233;28;20034;-85
2024/03/25 10:01:25;;;;;;;8.65;1.30;;;;;;;;;;4995560;28;20032;-86
2024/03/25 10:03:51;;;;;;;6.82;1.27;;;;;;;;;;4991153;28;20104;-85
2024/03/25 10:06:18;;;;;;;7.18;1.48;;;;;;;;;;4992452;28;20026;-86
2024/03/25 10:08:47;;;;;;;8.45;1.40;;;;;;;;;;4983835;28;20065;-88
2024/03/25 10:11:16;;;;;;;9.82;1.30;;;;;;;;;;4989314;28;20718;-86
2024/03/25 10:13:43;;;;;;;9.23;1.50;;;;;;;;;;4987122;28;20017;-86
2024/03/25 10:16:11;;;;;;;9.00;1.38;;;;;;;;;;4989100;28;20113;-86
2024/03/25 10:18:37;;;;;;;7.43;1.45;;;;;;;;;;4988639;28;20030;-84
2024/03/25 10:21:03;;;;;;;8.35;1.48;;;;;;;;;;4991643;28;20033;-85
2024/03/25 10:23:34;;;;;;;10.30;1.90;;;;;;;;;;4989589;28;20030;-86
2024/03/25 10:26:02;;;;;;;8.63;1.90;;;;;;;;;;4993664;28;20115;-85
2024/03/25 10:28:33;;;;;;;8.07;2.00;;;;;;;;;;4991121;28;20038;-86
2024/03/25 10:31:08;;;;;;;9.35;1.95;;;;;;;;;;4992021;28;20119;-84
2024/03/25 10:33:35;;;;;;;8.80;1.70;;;;;;;;;;4989761;28;20419;-84
2024/03/25 10:36:03;;;;;;;9.45;2.00;;;;;;;;;;4996815;28;20100;-85
2024/03/25 10:38:31;;;;;;;7.93;1.75;;;;;;;;;;4991138;28;20448;-85
2024/03/25 10:40:59;;;;;;;8.38;1.67;;;;;;;;;;4983159;28;20470;-86
2024/03/25 10:43:31;;;;;;;10.02;1.60;;;;;;;;;;5004694;28;20048;-86
2024/03/25 10:45:59;;;;;;;9.18;1.73;;;;;;;;;;4999378;28;20025;-85
2024/03/25 10:48:32;;;;;;;8.43;1.90;;;;;;;;;;4993222;28;20065;-84
2024/03/25 10:51:02;;;;;;;8.30;1.75;;;;;;;;;;4994132;28;20035;-84
2024/03/25 10:53:31;;;;;;;7.55;1.40;;;;;;;;;;4991402;28;20018;-84
2024/03/25 10:56:01;;;;;;;7.72;1.38;;;;;;;;;;4976145;28;20030;-84
2024/03/25 10:58:29;;;;;;;9.27;1.60;;;;;;;;;;4994036;28;20036;-86
2024/03/25 11:00:56;;;;;;;7.63;1.67;;;;;;;;;;5001077;28;20038;-85
2024/03/25 11:03:24;;;;;;;8.35;1.80;;;;;;;;;;5001464;28;20042;-84
2024/03/25 11:05:51;;;;;;;10.80;2.08;;;;;;;;;;4999830;28;20021;-85
2024/03/25 11:08:19;;;;;;;8.52;1.77;;;;;;;;;;5006382;28;20089;-85
2024/03/25 11:10:48;;;;;;;6.35;1.58;;;;;;;;;;5006043;28;20127;-84
2024/03/25 11:13:19;;;;;;;9.63;2.08;;;;;;;;;;5003857;28;20041;-85
2024/03/25 11:15:59;;;;;;;10.02;2.30;;;;;;;;;;4996863;28;20030;-85
2024/03/25 11:18:29;;;;;;;11.60;2.83;;;;;;;;;;4996668;28;20033;-85
2024/03/25 11:21:05;;;;;;;11.10;2.22;;;;;;;;;;4998262;28;20050;-85
2024/03/25 11:23:46;;;;;;;6.80;1.88;;;;;;;;;;4994251;28;20037;-85
2024/03/25 11:26:29;;;;;;;11.48;2.03;;;;;;;;;;5000206;28;20029;-85
2024/03/25 11:28:57;;;;;;;9.80;2.38;;;;;;;;;;4997018;28;20141;-85
2024/03/25 11:31:28;;;;;;;10.13;2.38;;;;;;;;;;5001124;28;20105;-84
2024/03/25 11:33:57;;;;;;;12.13;2.20;;;;;;;;;;5002040;28;20037;-84
2024/03/25 11:36:25;;;;;;;7.72;1.73;;;;;;;;;;4991423;28;20026;-82
2024/03/25 11:39:09;;;;;;;11.00;2.67;;;;;;;;;;4986736;28;20042;-83
2024/03/25 11:41:45;;;;;;;10.98;2.10;;;;;;;;;;4988676;28;20629;-81
2024/03/25 11:44:12;;;;;;;14.52;2.80;;;;;;;;;;4994910;28;20033;-85
2024/03/25 11:46:41;;;;;;;10.38;2.30;;;;;;;;;;4990220;28;20040;-85
2024/03/25 11:49:19;;;;;;;10.38;2.30;;;;;;;;;;4990830;28;20042;-84
2024/03/25 11:51:46;;;;;;;10.07;2.20;;;;;;;;;;4990042;28;21501;-84
2024/03/25 11:54:15;;;;;;;10.82;2.53;;;;;;;;;;4994185;28;20052;-86
2024/03/25 11:56:43;;;;;;;10.88;2.50;;;;;;;;;;4983164;28;20432;-88
2024/03/25 11:59:12;;;;;;;12.55;2.40;;;;;;;;;;4998856;28;20042;-87
2024/03/25 12:01:44;;;;;;;10.93;2.55;;;;;;;;;;5001394;28;20029;-87
2024/03/25 12:04:18;;;;;;;11.95;2.40;;;;;;;;;;5003366;28;20153;-85
2024/03/25 12:06:46;;;;;;;15.07;3.00;;;;;;;;;;4993527;28;20856;-85
2024/03/25 12:11:59;;;;;;;12.50;2.88;;;;;;;;;;5000557;28;20072;-85
2024/03/25 12:14:29;;;;;;;10.10;2.47;;;;;;;;;;4999770;28;20034;-87
2024/03/25 12:16:58;;;;;;;14.10;2.55;;;;;;;;;;4999809;28;20084;-86
2024/03/25 12:19:30;;;;;;;9.25;2.60;;;;;;;;;;4997950;28;20662;-88
2024/03/25 12:22:03;;;;;;;13.48;3.00;;;;;;;;;;4998983;28;20029;-87
2024/03/25 12:24:33;;;;;;;12.30;3.17;;;;;;;;;;4998504;28;20056;-87
2024/03/25 12:27:03;;;;;;;10.32;2.88;;;;;;;;;;5000875;28;20021;-87
2024/03/25 12:29:31;;;;;;;13.00;3.33;;;;;;;;;;4998952;28;20128;-87
2024/03/25 12:31:58;;;;;;;12.73;2.90;;;;;;;;;;4997564;28;20034;-87
2024/03/25 12:34:29;;;;;;;10.35;2.70;;;;;;;;;;4996865;28;20701;-86
2024/03/25 12:37:05;;;;;;;11.82;3.05;;;;;;;;;;5000408;28;20038;-86
2024/03/25 12:39:34;;;;;;;10.30;2.35;;;;;;;;;;4995257;28;20029;-84
2024/03/25 12:42:04;;;;;;;10.50;2.42;;;;;;;;;;5000721;28;20453;-87
2024/03/25 12:44:33;;;;;;;12.45;2.70;;;;;;;;;;4983955;28;20033;-88
2024/03/25 12:47:00;;;;;;;8.65;2.30;;;;;;;;;;4998442;28;20602;-85
2024/03/25 12:49:27;;;;;;;14.40;2.50;;;;;;;;;;4998081;28;20041;-85
2024/03/25 12:51:53;;;;;;;13.25;2.95;;;;;;;;;;5000777;28;20536;-87
2024/03/25 12:54:21;;;;;;;11.23;2.80;;;;;;;;;;5001495;28;20044;-87
2024/03/25 12:56:48;;;;;;;12.05;2.63;;;;;;;;;;5001694;28;20068;-87
2024/03/25 12:59:16;;;;;;;11.80;2.72;;;;;;;;;;5004160;28;20030;-87
2024/03/25 13:01:44;;;;;;;10.82;2.55;;;;;;;;;;4995955;28;20037;-88
2024/03/25 13:04:11;;;;;;;13.05;3.17;;;;;;;;;;5000142;28;20029;-85
2024/03/25 13:06:40;;;;;;;11.65;2.35;;;;;;;;;;5001879;28;20038;-86
2024/03/25 13:09:25;;;;;;;10.15;2.78;;;;;;;;;;5001473;28;20026;-86
2024/03/25 13:11:51;;;;;;;10.73;2.92;;;;;;;;;;5003903;28;20041;-88
2024/03/25 13:14:19;;;;;;;11.68;2.83;;;;;;;;;;4995434;28;20041;-87
2024/03/25 13:16:47;;;;;;;10.07;2.90;;;;;;;;;;4991090;28;20269;-87
2024/03/25 13:19:13;;;;;;;11.68;3.15;;;;;;;;;;4996327;28;20655;-87
2024/03/25 13:21:42;;;;;;;13.65;3.38;;;;;;;;;;4995977;28;20036;-87
2024/03/25 13:24:09;;;;;;;12.02;3.08;;;;;;;;;;4995789;28;20022;-88
2024/03/25 13:26:37;;;;;;;11.23;3.15;;;;;;;;;;4993482;28;20124;-86
2024/03/25 13:29:07;;;;;;;13.80;3.08;;;;;;;;;;4996850;28;20049;-87
2024/03/25 13:31:35;;;;;;;14.82;3.08;;;;;;;;;;4997226;28;20026;-86
2024/03/25 13:34:03;;;;;;;14.68;3.35;;;;;;;;;;5001216;28;20029;-86
2024/03/25 13:36:33;;;;;;;14.07;3.40;;;;;;;;;;5004733;28;20650;-88
2024/03/25 13:39:00;;;;;;;12.15;2.85;;;;;;;;;;5008110;28;20038;-89
2024/03/25 13:41:33;;;;;;;13.38;3.08;;;;;;;;;;5001983;28;20284;-88
2024/03/25 13:44:00;;;;;;;12.60;3.65;;;;;;;;;;4998212;28;20041;-89
2024/03/25 13:46:30;;;;;;;15.98;5.72;;;;;;;;;;5010999;28;20040;-91
2024/03/25 13:48:57;;;;;;;13.02;3.30;;;;;;;;;;5015641;28;20014;-89
2024/03/25 13:51:24;;;;;;;12.40;2.88;;;;;;;;;;5017363;28;20025;-88
2024/03/25 13:53:53;;;;;;;11.55;2.60;;;;;;;;;;5015280;28;20009;-90
2024/03/25 13:56:19;;;;;;;8.30;2.20;;;;;;;;;;5018127;28;20489;-88
2024/03/25 13:58:47;;;;;;;12.85;3.15;;;;;;;;;;4998331;28;21673;-86
2024/03/25 14:01:15;;;;;;;15.15;4.05;;;;;;;;;;5007307;28;20033;-89
2024/03/25 14:03:42;;;;;;;23.63;11.35;;;;;;;;;;5005273;28;20392;-87
2024/03/25 14:06:11;;;;;;;12.98;4.05;;;;;;;;;;4999359;28;20495;-85
2024/03/25 14:08:39;;;;;;;12.40;3.30;;;;;;;;;;4995447;28;20042;-87
2024/03/25 14:11:05;;;;;;;13.70;3.30;;;;;;;;;;4998319;28;20050;-86
2024/03/25 14:13:33;;;;;;;12.15;2.67;;;;;;;;;;4997788;28;20037;-87
2024/03/25 14:15:59;;;;;;;12.02;3.10;;;;;;;;;;4998711;28;20532;-87
2024/03/25 14:18:26;;;;;;;14.07;2.97;;;;;;;;;;5000059;28;20014;-86
2024/03/25 14:20:54;;;;;;;10.32;2.95;;;;;;;;;;4997523;28;20037;-87
2024/03/25 14:23:43;;;;;;;10.65;2.90;;;;;;;;;;5001788;28;20018;-87
2024/03/25 14:26:11;;;;;;;13.32;3.15;;;;;;;;;;5003287;28;20826;-87
2024/03/25 14:28:39;;;;;;;14.52;3.13;;;;;;;;;;4997470;28;20084;-86
2024/03/25 14:31:06;;;;;;;16.25;3.45;;;;;;;;;;5001545;28;20045;-87
2024/03/25 14:33:35;;;;;;;12.18;3.03;;;;;;;;;;4998536;28;20037;-87
2024/03/25 14:36:03;;;;;;;12.00;3.05;;;;;;;;;;4998047;28;20231;-86
2024/03/25 14:38:29;;;;;;;13.77;3.08;;;;;;;;;;4993196;28;20028;-86
2024/03/25 14:40:58;;;;;;;13.90;3.40;;;;;;;;;;5000101;28;20032;-87
2024/03/25 14:43:26;;;;;;;13.45;4.03;;;;;;;;;;5000857;28;20032;-87
2024/03/25 14:45:55;;;;;;;15.13;4.13;;;;;;;;;;5006464;28;20018;-88
2024/03/25 14:48:22;;;;;;;13.93;3.13;;;;;;;;;;5005784;28;20037;-87
2024/03/25 14:50:51;;;;;;;15.15;3.53;;;;;;;;;;5012125;28;20099;-87